createdAt,value
2022-12-09T00:02:26.631Z,94.40
2022-12-09T00:04:56.539Z,94.30
2022-12-09T00:07:27.332Z,94.30
2022-12-09T00:09:57.901Z,94.20
2022-12-09T00:12:28.566Z,94.20
2022-12-09T00:14:58.384Z,94.30
2022-12-09T00:17:28.931Z,94.30
2022-12-09T00:19:59.803Z,94.30
2022-12-09T00:22:31.897Z,94.30
2022-12-09T00:25:03.060Z,94.30
2022-12-09T00:27:33.459Z,94.30
2022-12-09T00:30:04.387Z,94.30
2022-12-09T00:32:35.600Z,94.40
2022-12-09T00:35:06.982Z,94.40
2022-12-09T00:37:37.688Z,94.40
2022-12-09T00:40:08.764Z,94.40
2022-12-09T00:42:38.843Z,94.50
2022-12-09T00:45:09.910Z,94.50
2022-12-09T00:47:40.143Z,94.40
2022-12-09T00:50:10.821Z,94.40
2022-12-09T00:52:40.253Z,94.50
2022-12-09T00:55:10.652Z,94.40
2022-12-09T00:57:42.094Z,94.40
2022-12-09T01:00:12.693Z,94.30
2022-12-09T01:02:43.523Z,94.20
2022-12-09T01:05:13.748Z,94.20
2022-12-09T01:07:44.167Z,94.20
2022-12-09T01:10:14.252Z,94.40
2022-12-09T01:12:45.043Z,94.30
2022-12-09T01:15:15.427Z,94.30
2022-12-09T01:17:45.611Z,94.50
2022-12-09T01:20:15.793Z,94.50
2022-12-09T01:22:46.009Z,94.40
2022-12-09T01:25:16.643Z,94.40
2022-12-09T01:27:46.900Z,94.40
2022-12-09T01:30:17.203Z,94.50
2022-12-09T01:32:50.973Z,94.60
2022-12-09T01:35:21.365Z,94.50
2022-12-09T01:37:51.300Z,94.60
2022-12-09T01:40:21.970Z,94.60
2022-12-09T01:42:53.432Z,94.70
2022-12-09T01:45:43.530Z,94.70
2022-12-09T01:48:22.350Z,94.70
2022-12-09T01:51:00.646Z,94.70
2022-12-09T01:53:37.032Z,94.80
2022-12-09T01:56:13.911Z,94.90
2022-12-09T01:58:44.854Z,94.80
2022-12-09T02:01:14.971Z,94.70
2022-12-09T02:03:45.642Z,94.50
2022-12-09T02:06:18.563Z,94.50
2022-12-09T02:08:50.944Z,94.50
2022-12-09T02:11:48.094Z,94.40
2022-12-09T02:14:30.167Z,94.30
2022-12-09T02:17:27.933Z,94.10
2022-12-09T02:20:12.224Z,93.80
2022-12-09T02:23:02.979Z,93.60
2022-12-09T02:25:57.542Z,93.50
2022-12-09T02:28:56.997Z,93.40
2022-12-09T02:31:46.884Z,92.90
2022-12-09T02:34:22.232Z,93.00
2022-12-09T02:37:18.983Z,93.00
2022-12-09T02:40:02.960Z,93.00
2022-12-09T02:42:38.988Z,92.80
2022-12-09T02:45:12.967Z,92.70
2022-12-09T02:47:51.963Z,92.70
2022-12-09T02:50:31.643Z,92.50
2022-12-09T02:53:06.597Z,92.50
2022-12-09T02:55:42.785Z,92.40
2022-12-09T02:58:13.123Z,92.30
2022-12-09T03:00:46.031Z,92.20
2022-12-09T03:03:19.378Z,92.20
2022-12-09T03:06:17.910Z,91.90
2022-12-09T03:08:59.302Z,91.60
2022-12-09T03:11:31.103Z,91.20
2022-12-09T03:14:17.676Z,91.00
2022-12-09T03:17:26.838Z,90.80
2022-12-09T03:20:03.120Z,91.00
2022-12-09T03:22:37.502Z,90.90
2022-12-09T03:25:30.483Z,90.50
2022-12-09T03:28:07.445Z,90.40
2022-12-09T03:30:41.330Z,90.50
2022-12-09T03:33:12.857Z,90.60
2022-12-09T03:35:48.617Z,90.60
2022-12-09T03:38:22.834Z,90.40
2022-12-09T03:41:02.811Z,90.40
2022-12-09T03:43:38.824Z,90.60
2022-12-09T03:46:08.982Z,90.60
2022-12-09T03:48:39.176Z,90.40
2022-12-09T03:51:19.890Z,90.20
2022-12-09T03:54:22.102Z,90.10
2022-12-09T03:56:55.485Z,88.90
2022-12-09T03:59:28.208Z,87.50
2022-12-09T04:01:59.060Z,88.20
2022-12-09T04:04:30.623Z,88.90
2022-12-09T04:07:01.290Z,88.60
2022-12-09T04:09:30.889Z,88.50
2022-12-09T04:12:02.324Z,87.50
2022-12-09T04:14:36.439Z,86.80
2022-12-09T04:17:06.881Z,86.90
2022-12-09T04:19:37.532Z,87.70
2022-12-09T04:22:07.773Z,88.00
2022-12-09T04:24:37.773Z,86.20
2022-12-09T04:27:07.941Z,86.70
2022-12-09T04:29:38.314Z,86.10
2022-12-09T04:32:08.836Z,85.70
2022-12-09T04:34:38.484Z,85.10
2022-12-09T04:37:10.008Z,85.50
2022-12-09T04:39:43.699Z,86.00
2022-12-09T04:42:15.114Z,85.70
2022-12-09T04:44:45.342Z,84.40
2022-12-09T04:47:16.255Z,84.00
2022-12-09T04:49:47.307Z,83.10
2022-12-09T04:52:20.981Z,83.00
2022-12-09T04:54:52.771Z,83.60
2022-12-09T04:57:24.133Z,83.70
2022-12-09T04:59:54.575Z,83.80
2022-12-09T05:02:25.259Z,83.50
2022-12-09T05:04:55.407Z,83.00
2022-12-09T05:07:26.879Z,80.70
2022-12-09T05:09:57.264Z,81.40
2022-12-09T05:12:27.652Z,81.70
2022-12-09T05:14:57.919Z,81.50
2022-12-09T05:17:28.275Z,80.80
2022-12-09T05:19:58.631Z,78.40
2022-12-09T05:22:29.330Z,78.40
2022-12-09T06:02:15.164Z,77.60
2022-12-09T06:04:45.601Z,77.60
2022-12-09T06:07:16.056Z,76.80
2022-12-09T06:09:46.505Z,75.40
2022-12-09T06:12:17.657Z,75.40
2022-12-09T06:14:47.697Z,72.90
2022-12-09T06:17:18.712Z,72.60
2022-12-09T06:19:49.081Z,72.30
2022-12-09T06:22:19.649Z,73.10
2022-12-09T06:24:55.509Z,73.30
2022-12-09T06:31:10.202Z,72.40
2022-12-09T06:34:00.459Z,72.70
2022-12-09T06:36:33.329Z,73.10
2022-12-09T06:39:10.531Z,73.60
2022-12-09T06:41:45.174Z,74.20
2022-12-09T06:44:23.229Z,71.20
2022-12-09T06:54:44.989Z,72.60
2022-12-09T07:08:20.733Z,71.80
2022-12-09T07:10:56.555Z,72.60
2022-12-09T07:13:27.104Z,72.10
2022-12-09T07:15:57.628Z,72.40
2022-12-09T07:18:27.807Z,71.90
2022-12-09T07:20:58.694Z,69.90
2022-12-09T07:23:28.432Z,70.50
2022-12-09T07:33:28.715Z,70.20
2022-12-09T07:36:01.124Z,70.50
2022-12-09T07:38:31.636Z,69.10
2022-12-09T07:41:08.259Z,68.80
2022-12-09T07:43:39.798Z,68.50
2022-12-09T07:46:10.790Z,68.40
2022-12-09T07:48:41.743Z,69.20
2022-12-09T07:51:14.589Z,66.20
2022-12-09T07:53:46.029Z,66.30
2022-12-09T07:56:17.897Z,66.30
2022-12-09T07:58:50.640Z,65.50
2022-12-09T08:01:25.306Z,66.10
2022-12-09T08:03:56.829Z,65.00
2022-12-09T08:06:29.659Z,66.30
2022-12-09T08:09:03.338Z,65.90
2022-12-09T08:11:34.998Z,66.30
2022-12-09T08:14:12.277Z,66.20
2022-12-09T08:16:44.721Z,65.80
2022-12-09T08:19:17.029Z,67.50
2022-12-09T08:21:51.451Z,67.10
2022-12-09T08:24:24.808Z,66.80
2022-12-09T10:07:53.840Z,72.10
2022-12-09T10:10:55.584Z,73.00
2022-12-09T11:04:48.013Z,80.70
2022-12-09T11:07:25.237Z,81.30
2022-12-09T11:10:19.902Z,81.40
2022-12-09T11:12:55.514Z,80.90
2022-12-09T11:15:32.364Z,82.00
2022-12-09T11:18:08.846Z,82.00
2022-12-09T11:20:40.129Z,82.00
2022-12-09T11:23:20.418Z,82.30
2022-12-09T11:26:05.340Z,82.50
2022-12-09T11:28:38.511Z,83.10
2022-12-09T11:31:29.592Z,83.50
2022-12-09T11:34:05.375Z,83.50
2022-12-09T11:36:42.324Z,83.40
2022-12-09T11:39:30.247Z,83.60
2022-12-09T11:42:21.186Z,84.00
2022-12-09T11:45:02.300Z,83.90
2022-12-09T11:48:24.155Z,83.50
2022-12-09T11:50:44.189Z,84.40
2022-12-09T11:53:36.879Z,84.20
2022-12-09T11:56:19.543Z,84.60
2022-12-09T11:59:15.124Z,84.30
2022-12-09T12:02:08.617Z,84.60
2022-12-09T12:04:51.034Z,85.20
2022-12-09T12:07:42.775Z,85.80
2022-12-09T12:10:39.439Z,85.90
2022-12-09T12:13:27.204Z,86.10
2022-12-09T12:16:14.384Z,86.40
2022-12-09T12:19:13.756Z,86.90
2022-12-09T12:22:12.416Z,87.10
2022-12-09T12:25:18.053Z,87.50
2022-12-09T12:28:17.263Z,87.80
2022-12-09T12:31:23.903Z,87.70
2022-12-09T12:34:27.156Z,87.50
2022-12-09T12:37:24.647Z,87.50
2022-12-09T12:40:26.934Z,87.50
2022-12-09T12:43:23.889Z,87.60
2022-12-09T12:46:14.298Z,87.80
2022-12-09T12:49:14.883Z,87.60
2022-12-09T12:52:39.378Z,87.20
2022-12-09T12:55:24.901Z,87.50
2022-12-09T12:58:25.641Z,87.50
2022-12-09T13:01:08.244Z,87.50
2022-12-09T13:04:15.853Z,87.80
2022-12-09T13:07:05.906Z,87.90
2022-12-09T13:09:46.509Z,88.00
2022-12-09T13:12:20.256Z,88.00
2022-12-09T13:14:56.297Z,87.90
2022-12-09T13:17:32.148Z,88.00
2022-12-09T13:20:05.527Z,88.40
2022-12-09T13:22:56.994Z,88.60
2022-12-09T13:25:56.653Z,89.40
2022-12-09T13:28:41.656Z,89.50
2022-12-09T13:31:13.720Z,90.00
2022-12-09T13:34:10.068Z,90.00
2022-12-09T13:36:44.647Z,90.40
2022-12-09T13:39:35.121Z,90.30
2022-12-09T13:42:17.318Z,90.40
2022-12-09T13:44:48.505Z,90.60
2022-12-09T13:47:38.226Z,90.70
2022-12-09T13:50:23.811Z,90.70
2022-12-09T13:52:59.050Z,90.80
2022-12-09T13:55:35.031Z,90.90
2022-12-09T13:58:32.675Z,91.10
2022-12-09T14:01:31.471Z,91.30
2022-12-09T14:04:13.992Z,91.50
2022-12-09T14:07:10.039Z,91.60
2022-12-09T14:09:53.095Z,91.90
2022-12-09T14:13:01.848Z,91.70
2022-12-09T14:15:38.408Z,91.80
2022-12-09T14:18:30.155Z,91.80
2022-12-09T14:21:27.229Z,91.80
2022-12-09T14:24:30.735Z,91.80
2022-12-09T14:27:18.261Z,91.80
2022-12-09T14:29:56.125Z,91.90
2022-12-09T14:32:38.899Z,91.90
2022-12-09T14:35:24.996Z,91.80
2022-12-09T14:38:24.050Z,91.90
2022-12-09T14:41:08.146Z,91.90
2022-12-09T14:44:02.577Z,91.80
2022-12-09T14:46:39.919Z,91.80
2022-12-09T14:49:19.570Z,91.90
2022-12-09T14:51:53.100Z,92.00
2022-12-09T14:54:30.161Z,92.20
2022-12-09T14:57:02.642Z,92.20
2022-12-09T14:59:34.411Z,92.10
2022-12-09T15:02:25.451Z,92.10
2022-12-09T15:04:56.721Z,92.10
2022-12-09T15:07:30.280Z,92.20
2022-12-09T15:10:07.512Z,92.20
2022-12-09T15:12:43.507Z,92.30
2022-12-09T15:15:27.960Z,92.20
2022-12-09T15:18:19.474Z,92.20
2022-12-09T15:21:03.062Z,92.00
2022-12-09T15:23:36.324Z,91.80
2022-12-09T15:26:31.596Z,91.60
2022-12-09T15:29:02.716Z,91.40
2022-12-09T15:31:34.586Z,91.50
2022-12-09T15:34:19.358Z,91.60
2022-12-09T15:36:57.202Z,91.50
2022-12-09T15:39:48.741Z,91.60
2022-12-09T15:42:27.752Z,91.50
2022-12-09T15:45:11.603Z,91.50
2022-12-09T15:48:07.541Z,91.40
2022-12-09T15:50:58.499Z,91.40
2022-12-09T15:53:40.912Z,91.30
2022-12-09T15:56:20.026Z,91.40
2022-12-09T15:58:54.620Z,91.40
2022-12-09T16:01:29.153Z,91.50
2022-12-09T16:04:02.311Z,91.40
2022-12-09T16:06:39.941Z,91.50
2022-12-09T16:09:20.848Z,91.70
2022-12-09T16:11:54.077Z,91.70
2022-12-09T16:14:26.561Z,91.80
2022-12-09T16:17:03.072Z,91.90
2022-12-09T16:19:39.962Z,92.00
2022-12-09T16:22:23.927Z,92.10
2022-12-09T16:25:14.592Z,92.00
2022-12-09T16:27:50.924Z,92.00
2022-12-09T16:30:25.327Z,92.10
2022-12-09T16:32:57.301Z,92.20
2022-12-09T16:35:31.011Z,92.20
2022-12-09T16:38:21.125Z,92.20
2022-12-09T16:41:08.713Z,92.10
2022-12-09T16:43:43.867Z,92.50
2022-12-09T16:46:39.294Z,92.30
2022-12-09T16:49:10.095Z,92.30
2022-12-09T16:51:40.981Z,92.30
2022-12-09T16:54:20.464Z,92.50
2022-12-09T16:56:53.913Z,92.40
2022-12-09T16:59:23.939Z,92.50
2022-12-09T17:01:53.982Z,92.50
2022-12-09T17:04:30.335Z,92.60
2022-12-09T17:07:00.516Z,92.70
2022-12-09T17:09:30.447Z,92.80
2022-12-09T17:12:00.427Z,92.80
2022-12-09T17:14:30.847Z,92.70
2022-12-09T17:17:00.890Z,92.70
2022-12-09T17:19:31.296Z,92.80
2022-12-09T17:22:01.433Z,92.90
2022-12-09T17:24:31.634Z,92.90
2022-12-09T17:27:01.789Z,93.00
2022-12-09T17:29:32.627Z,93.00
2022-12-09T17:32:02.683Z,93.10
2022-12-09T17:34:32.844Z,93.10
2022-12-09T17:37:02.853Z,93.00
2022-12-09T17:39:32.837Z,93.00
2022-12-09T17:42:03.144Z,92.90
2022-12-09T17:44:33.139Z,92.90
2022-12-09T17:47:03.139Z,93.00
2022-12-09T17:49:33.731Z,92.90
2022-12-09T17:52:03.022Z,92.90
2022-12-09T17:54:33.102Z,93.00
2022-12-09T17:57:03.050Z,93.00
2022-12-09T17:59:33.871Z,93.00
2022-12-09T18:02:06.338Z,93.10
2022-12-09T18:04:39.533Z,93.20
2022-12-09T18:07:10.228Z,93.10
2022-12-09T18:09:39.913Z,93.10
2022-12-09T18:12:10.336Z,93.10
2022-12-09T18:14:40.895Z,93.30
2022-12-09T18:17:12.241Z,93.30
2022-12-09T18:19:42.836Z,93.30
2022-12-09T18:22:13.225Z,93.40
2022-12-09T18:24:43.333Z,93.40
2022-12-09T18:27:13.349Z,93.40
2022-12-09T18:29:43.729Z,93.40
2022-12-09T18:32:15.556Z,93.50
2022-12-09T18:34:51.383Z,93.50
2022-12-09T18:37:32.588Z,93.40
2022-12-09T18:40:07.059Z,93.50
2022-12-09T18:42:38.439Z,93.40
2022-12-09T18:45:09.566Z,93.30
2022-12-09T18:47:40.342Z,93.50
2022-12-09T18:50:10.476Z,93.50
2022-12-09T18:52:42.887Z,93.50
2022-12-09T18:55:13.445Z,93.50
2022-12-09T18:57:44.738Z,93.40
2022-12-09T19:00:18.381Z,93.40
2022-12-09T19:02:48.933Z,93.30
2022-12-09T19:05:18.787Z,93.40
2022-12-09T19:07:48.814Z,93.50
2022-12-09T19:10:19.349Z,93.50
2022-12-09T19:12:53.737Z,93.50
2022-12-09T19:15:26.618Z,93.50
2022-12-09T19:17:56.837Z,93.50
2022-12-09T19:20:29.411Z,93.50
2022-12-09T19:22:59.423Z,93.40
2022-12-09T19:25:29.457Z,93.40
2022-12-09T19:27:59.363Z,93.40
2022-12-09T19:30:31.073Z,93.40
2022-12-09T19:33:02.137Z,93.40
2022-12-09T19:35:32.179Z,93.40
2022-12-09T19:38:02.467Z,93.40
2022-12-09T19:40:32.327Z,93.30
2022-12-09T19:43:02.351Z,93.40
2022-12-09T19:45:32.734Z,93.40
2022-12-09T19:48:02.594Z,93.50
2022-12-09T19:50:33.351Z,93.50
2022-12-09T19:53:02.566Z,93.60
2022-12-09T19:55:32.423Z,93.60
2022-12-09T19:58:05.975Z,93.60
2022-12-09T20:00:41.607Z,93.60
2022-12-09T20:03:15.912Z,93.70
2022-12-09T20:05:58.018Z,93.60
2022-12-09T20:08:28.297Z,93.70
2022-12-09T20:11:02.216Z,93.60
2022-12-09T20:13:32.318Z,93.70
2022-12-09T20:16:10.030Z,93.90
2022-12-09T20:18:41.050Z,93.80
2022-12-09T20:21:13.329Z,93.80
2022-12-09T20:23:45.138Z,93.90
2022-12-09T20:26:19.437Z,94.00
2022-12-09T20:28:51.624Z,93.90
2022-12-09T20:31:24.903Z,94.00
2022-12-09T20:34:03.314Z,94.00
2022-12-09T20:36:35.281Z,94.00
2022-12-09T20:39:12.855Z,94.00
2022-12-09T20:41:44.007Z,93.90
2022-12-09T20:44:15.797Z,94.00
2022-12-09T20:46:49.744Z,94.10
2022-12-09T20:49:22.121Z,94.10
2022-12-09T20:51:52.179Z,94.10
2022-12-09T20:54:22.127Z,94.10
2022-12-09T20:56:52.134Z,94.20
2022-12-09T20:59:22.321Z,94.20
2022-12-09T21:01:52.337Z,94.20
2022-12-09T21:04:23.384Z,94.10
2022-12-09T21:06:56.485Z,94.10
2022-12-09T21:09:29.028Z,94.10
2022-12-09T21:12:02.452Z,94.10
2022-12-09T21:14:37.316Z,94.10
2022-12-09T21:17:08.372Z,94.10
2022-12-09T21:19:39.143Z,94.10
2022-12-09T21:22:08.871Z,94.10
2022-12-09T21:24:38.917Z,94.10
2022-12-09T21:27:08.744Z,94.10
2022-12-09T21:29:39.489Z,94.20
2022-12-09T21:32:08.769Z,94.30
2022-12-09T21:34:38.827Z,94.30
2022-12-09T21:37:08.897Z,94.10
2022-12-09T21:39:38.809Z,94.10
2022-12-09T21:42:08.842Z,94.10
2022-12-09T21:44:38.858Z,94.10
2022-12-09T21:47:08.677Z,94.20
2022-12-09T21:49:38.557Z,94.30
2022-12-09T21:52:08.708Z,94.30
2022-12-09T21:54:39.770Z,94.30
2022-12-09T21:57:09.885Z,94.40
2022-12-09T21:59:39.799Z,94.40
2022-12-09T22:02:10.078Z,94.30
2022-12-09T22:04:40.271Z,94.10
2022-12-09T22:07:10.178Z,94.20
2022-12-09T22:09:40.114Z,94.20
2022-12-09T22:12:10.446Z,94.30
2022-12-09T22:14:40.464Z,94.20
2022-12-09T22:17:10.358Z,94.10
2022-12-09T22:19:40.486Z,94.00
2022-12-09T22:22:10.514Z,93.90
2022-12-09T22:24:40.727Z,93.90
2022-12-09T22:27:10.847Z,94.00
2022-12-09T22:29:40.868Z,94.10
2022-12-09T22:32:10.795Z,94.10
2022-12-09T22:34:40.814Z,94.10
2022-12-09T22:37:35.270Z,94.20
2022-12-09T22:40:00.605Z,94.10
2022-12-09T22:42:32.103Z,94.20
2022-12-09T22:45:02.083Z,94.10
2022-12-09T22:47:31.942Z,94.10
2022-12-09T22:50:01.837Z,94.20
2022-12-09T22:52:33.017Z,94.30
2022-12-09T22:55:04.287Z,94.30
2022-12-09T22:57:36.425Z,94.30
2022-12-09T23:00:13.946Z,94.40
2022-12-09T23:02:44.617Z,94.50
2022-12-09T23:05:14.504Z,94.40
2022-12-09T23:07:45.003Z,94.40
2022-12-09T23:10:15.625Z,94.50
2022-12-09T23:12:45.913Z,94.60
2022-12-09T23:15:16.271Z,94.60
2022-12-09T23:17:46.848Z,94.70
2022-12-09T23:20:17.222Z,94.70
2022-12-09T23:22:47.816Z,94.60
2022-12-09T23:25:18.308Z,94.70
2022-12-09T23:27:48.759Z,94.70
2022-12-09T23:30:19.413Z,94.80
2022-12-09T23:32:49.817Z,94.70
2022-12-09T23:35:20.459Z,94.80
2022-12-09T23:37:50.879Z,94.60
2022-12-09T23:40:22.326Z,94.50
2022-12-09T23:42:55.954Z,94.40
2022-12-09T23:45:26.909Z,94.40
2022-12-09T23:47:57.301Z,94.40
2022-12-09T23:50:28.274Z,94.70
2022-12-09T23:52:58.707Z,94.40
2022-12-09T23:55:29.104Z,94.30
2022-12-09T23:57:59.455Z,94.30
